Terminal Aerodrome Forecast
Issued by NWS

Home | Current Version | Previous Version | Text Only | Print | Product List | Glossary On
Versions: 1 2 3 4 5 6 7 8 9 10 11 12 13 14 15 16 17 18 19 20 21 22 23 24 25
402
FTUS41 KPHI 130703 CCA
TAFMIV
TAF COR
KMIV 130703Z 1307/1406 26006KT P6SM SCT050 OVC090
      TEMPO 1307/1309 6SM -SHSN
     FM131100 30012G20KT P6SM BKN050 OVC070
      TEMPO 1311/1313 6SM -SHSN
     FM131400 31018G28KT P6SM BKN050 OVC070
     FM131600 31020G35KT P6SM BKN050
     FM140000 31012G25KT P6SM SCT050=

USA.gov is the U.S. government's official web portal to all federal, state and local government web resources and services.